createdAt,value
2022-11-07T00:00:11.350Z,10.9
2022-11-07T00:01:12.887Z,10.8
2022-11-07T00:03:12.989Z,10.7
2022-11-07T00:05:12.249Z,10.8
2022-11-07T00:07:11.934Z,10.8
2022-11-07T00:09:15.005Z,10.7
2022-11-07T00:19:13.435Z,10.8
2022-11-07T00:29:15.206Z,10.8
2022-11-07T00:31:14.893Z,10.8
2022-11-07T00:33:14.859Z,10.8
2022-11-07T00:35:14.240Z,10.7
2022-11-07T00:37:17.316Z,10.7
2022-11-07T00:39:16.986Z,10.8
2022-11-07T00:41:16.640Z,10.6
2022-11-07T00:43:16.607Z,10.5
2022-11-07T00:47:15.676Z,10.6
2022-11-07T00:49:15.383Z,10.6
2022-11-07T00:51:18.427Z,10.5
2022-11-07T00:53:18.298Z,10.7
2022-11-07T00:55:17.799Z,10.7
2022-11-07T01:01:32.938Z,10.7
2022-11-07T01:05:35.421Z,10.6
2022-11-07T01:07:35.096Z,10.7
2022-11-07T01:09:34.769Z,10.7
2022-11-07T01:11:34.420Z,10.6
2022-11-07T01:13:28.427Z,10.6
2022-11-07T01:15:28.086Z,10.6
2022-11-07T01:17:31.164Z,10.6
2022-11-07T01:19:30.848Z,10.6
2022-11-07T01:21:30.545Z,10.6
2022-11-07T01:23:30.227Z,10.6
2022-11-07T01:27:29.547Z,10.7
2022-11-07T01:33:31.987Z,10.9
2022-11-07T01:35:31.666Z,10.9
2022-11-07T01:37:31.350Z,10.9
2022-11-07T01:39:31.039Z,10.9
2022-11-07T01:41:30.715Z,10.9
2022-11-07T01:43:30.367Z,10.8
2022-11-07T01:45:33.485Z,10.9
2022-11-07T01:47:33.153Z,10.8
2022-11-07T01:49:32.882Z,10.9
2022-11-07T01:50:34.418Z,11
2022-11-07T01:52:34.073Z,11
2022-11-07T01:56:33.446Z,11.1
2022-11-07T01:58:36.547Z,11.1
2022-11-07T02:00:36.210Z,11
2022-11-07T02:02:36.096Z,11.1
2022-11-07T02:04:35.571Z,11.1
2022-11-07T02:06:35.248Z,11.1
2022-11-07T02:08:35.080Z,11.1
2022-11-07T02:10:34.631Z,11.1
2022-11-07T02:12:37.807Z,11
2022-11-07T02:14:37.372Z,11
2022-11-07T02:16:37.030Z,11
2022-11-07T02:18:36.703Z,11.1
2022-11-07T02:20:36.373Z,11.1
2022-11-07T02:22:36.063Z,11
2022-11-07T02:24:35.740Z,11
2022-11-07T02:26:38.806Z,11.2
2022-11-07T02:28:38.506Z,11.2
2022-11-07T02:30:38.186Z,11.2
2022-11-07T02:32:37.829Z,11.2
2022-11-07T02:34:37.504Z,11.1
2022-11-07T02:36:37.174Z,11.2
2022-11-07T02:38:36.840Z,11.2
2022-11-07T02:40:39.920Z,11
2022-11-07T02:44:39.285Z,11.1
2022-11-07T02:45:40.802Z,11
2022-11-07T02:49:40.140Z,11
2022-11-07T02:51:39.795Z,10.9
2022-11-07T02:55:42.569Z,11
2022-11-07T02:57:42.230Z,11
2022-11-07T02:59:41.892Z,11
2022-11-07T03:01:41.732Z,11
2022-11-07T03:03:41.249Z,11
2022-11-07T03:05:40.967Z,11.1
2022-11-07T03:07:44.030Z,11
2022-11-07T03:09:43.724Z,11
2022-11-07T03:11:43.382Z,10.9
2022-11-07T03:13:43.070Z,11
2022-11-07T03:15:44.310Z,11
2022-11-07T03:17:43.969Z,10.9
2022-11-07T03:19:43.604Z,10.8
2022-11-07T03:21:46.701Z,10.7
2022-11-07T03:23:46.349Z,10.7
2022-11-07T03:25:46.038Z,10.7
2022-11-07T03:27:45.722Z,10.7
2022-11-07T03:29:45.398Z,10.8
2022-11-07T03:31:45.073Z,10.8
2022-11-07T03:33:44.770Z,10.9
2022-11-07T03:35:47.841Z,10.8
2022-11-07T03:40:48.766Z,10.8
2022-11-07T03:42:48.432Z,10.8
2022-11-07T03:44:48.083Z,10.8
2022-11-07T03:48:50.892Z,10.7
2022-11-07T03:50:50.553Z,10.6
2022-11-07T03:54:49.892Z,10.6
2022-11-07T03:56:49.564Z,10.5
2022-11-07T03:58:49.238Z,10.5
2022-11-07T04:00:48.915Z,10.4
2022-11-07T04:02:52.192Z,10.6
2022-11-07T04:04:51.661Z,10.6
2022-11-07T04:06:51.338Z,10.6
2022-11-07T04:08:51.030Z,10.6
2022-11-07T04:10:50.690Z,10.6
2022-11-07T04:12:50.385Z,10.6
2022-11-07T04:14:50.109Z,10.7
2022-11-07T04:16:53.169Z,10.7
2022-11-07T04:22:52.137Z,11
2022-11-07T04:24:51.841Z,11.1
2022-11-07T04:26:51.522Z,11
2022-11-07T04:28:51.187Z,10.9
2022-11-07T04:30:54.275Z,10.8
2022-11-07T04:32:53.936Z,10.8
2022-11-07T04:34:53.619Z,10.8
2022-11-07T04:37:15.462Z,10.8
2022-11-07T04:39:15.119Z,10.8
2022-11-07T04:45:17.546Z,10.8
2022-11-07T04:49:16.918Z,10.7
2022-11-07T04:51:16.611Z,10.8
2022-11-07T04:55:15.932Z,10.8
2022-11-07T04:57:19.141Z,10.9
2022-11-07T04:59:18.662Z,10.9
2022-11-07T05:01:18.336Z,10.9
2022-11-07T05:03:18.447Z,10.8
2022-11-07T05:09:17.062Z,10.9
2022-11-07T05:11:20.119Z,10.9
2022-11-07T05:13:19.843Z,10.9
2022-11-07T05:15:19.505Z,10.9
2022-11-07T05:17:19.178Z,10.9
2022-11-07T05:19:18.837Z,10.9
2022-11-07T05:21:18.530Z,10.9
2022-11-07T05:23:18.908Z,10.9
2022-11-07T05:25:21.295Z,11
2022-11-07T05:27:20.947Z,11
2022-11-07T05:29:20.646Z,11
2022-11-07T05:30:22.177Z,11.1
2022-11-07T05:32:21.820Z,11
2022-11-07T05:34:21.494Z,11
2022-11-07T05:36:21.197Z,11
2022-11-07T05:38:24.245Z,11
2022-11-07T05:40:23.973Z,11.1
2022-11-07T05:42:23.603Z,11.1
2022-11-07T05:44:23.238Z,11
2022-11-07T05:46:22.903Z,11.1
2022-11-07T05:48:22.588Z,11.2
2022-11-07T05:50:22.225Z,11.3
2022-11-07T05:52:25.296Z,11.3
2022-11-07T05:54:24.960Z,11.2
2022-11-07T05:56:24.609Z,11.2
2022-11-07T05:58:24.306Z,11.3
2022-11-07T06:00:23.955Z,11.3
2022-11-07T06:02:23.821Z,11.3
2022-11-07T06:04:23.305Z,11.3
2022-11-07T06:06:26.353Z,11.4
2022-11-07T06:08:26.015Z,11.4
2022-11-07T06:10:25.699Z,11.4
2022-11-07T06:12:25.346Z,11.3
2022-11-07T06:14:25.006Z,11.4
2022-11-07T06:16:24.651Z,11.4
2022-11-07T06:22:27.127Z,11.4
2022-11-07T06:24:26.756Z,11.4
2022-11-07T06:27:27.944Z,11.5
2022-11-07T06:29:27.625Z,11.6
2022-11-07T06:41:28.948Z,11.6
2022-11-07T06:43:32.803Z,11.5
2022-11-07T06:45:28.280Z,11.5
2022-11-07T06:47:31.330Z,11.5
2022-11-07T06:49:31.011Z,11.5
2022-11-07T06:51:30.685Z,11.5
2022-11-07T06:53:30.335Z,11.5
2022-11-07T06:55:29.992Z,11.5
2022-11-07T06:57:29.648Z,11.4
2022-11-07T06:59:29.313Z,11.5
2022-11-07T07:01:32.517Z,11.5
2022-11-07T07:03:32.010Z,11.5
2022-11-07T07:05:31.681Z,11.5
2022-11-07T07:07:31.368Z,11.5
2022-11-07T07:09:31.026Z,11.5
2022-11-07T07:11:30.672Z,11.5
2022-11-07T07:13:30.304Z,11.5
2022-11-07T07:15:47.785Z,11.5
2022-11-07T07:17:33.011Z,11.5
2022-11-07T07:19:32.676Z,11.6
2022-11-07T07:20:34.201Z,11.6
2022-11-07T07:22:33.874Z,11.6
2022-11-07T07:24:33.520Z,11.6
2022-11-07T07:26:33.199Z,11.6
2022-11-07T07:30:35.898Z,11.6
2022-11-07T07:32:35.528Z,11.6
2022-11-07T07:34:35.182Z,11.7
2022-11-07T07:36:34.841Z,11.6
2022-11-07T07:38:34.542Z,11.6
2022-11-07T07:40:34.325Z,11.6
2022-11-07T07:42:37.258Z,11.7
2022-11-07T07:44:36.904Z,11.7
2022-11-07T07:46:36.567Z,11.8
2022-11-07T07:48:36.234Z,11.8
2022-11-07T07:50:35.908Z,11.8
2022-11-07T07:56:38.297Z,11.9
2022-11-07T07:58:37.956Z,11.9
2022-11-07T08:00:37.664Z,11.9
2022-11-07T08:02:37.346Z,12
2022-11-07T08:04:36.926Z,12
2022-11-07T08:06:36.581Z,12
2022-11-07T08:08:38.387Z,12
2022-11-07T08:10:42.349Z,12
2022-11-07T08:12:38.936Z,12.1
2022-11-07T08:14:38.610Z,12.1
2022-11-07T08:16:59.855Z,12.2
2022-11-07T08:18:59.498Z,12.2
2022-11-07T08:20:59.144Z,12.2
2022-11-07T08:23:02.187Z,12.2
2022-11-07T08:25:01.817Z,12.2
2022-11-07T08:27:01.500Z,12.2
2022-11-07T08:31:00.792Z,12.3
2022-11-07T08:33:00.404Z,12.3
2022-11-07T08:35:00.092Z,12.3
2022-11-07T08:37:03.159Z,12.4
2022-11-07T08:39:02.782Z,12.4
2022-11-07T08:41:02.437Z,12.5
2022-11-07T08:43:02.051Z,12.6
2022-11-07T08:45:01.733Z,12.7
2022-11-07T08:47:07.324Z,12.8
2022-11-07T08:49:00.980Z,13
2022-11-07T08:51:04.063Z,13
2022-11-07T08:53:03.701Z,12.9
2022-11-07T08:55:03.310Z,12.9
2022-11-07T08:57:02.980Z,12.9
2022-11-07T08:59:02.580Z,12.9
2022-11-07T09:01:03.930Z,12.9
2022-11-07T09:05:06.403Z,13
2022-11-07T09:07:06.033Z,13
2022-11-07T09:09:05.666Z,13.2
2022-11-07T09:10:07.181Z,13.2
2022-11-07T09:12:06.796Z,13.2
2022-11-07T09:14:06.407Z,13.2
2022-11-07T09:16:06.063Z,13.1
2022-11-07T09:18:09.073Z,13.2
2022-11-07T09:20:08.717Z,13.1
2022-11-07T09:24:07.972Z,13.2
2022-11-07T09:26:07.641Z,13.2
2022-11-07T09:28:07.226Z,13.2
2022-11-07T09:30:06.856Z,13.1
2022-11-07T09:32:30.829Z,13.2
2022-11-07T09:34:09.513Z,13.2
2022-11-07T09:36:09.118Z,13.2
2022-11-07T09:40:08.367Z,13.2
2022-11-07T09:42:07.950Z,13.2
2022-11-07T09:44:07.564Z,13.3
2022-11-07T09:46:10.566Z,13.2
2022-11-07T09:48:10.380Z,13.3
2022-11-07T09:50:09.832Z,13.2
2022-11-07T09:52:09.457Z,13.3
2022-11-07T09:54:09.058Z,13.3
2022-11-07T10:00:11.289Z,13.3
2022-11-07T10:02:10.976Z,13.3
2022-11-07T10:04:25.811Z,13.3
2022-11-07T10:05:12.031Z,13.4
2022-11-07T10:09:11.240Z,13.4
2022-11-07T10:11:10.835Z,13.4
2022-11-07T10:13:14.108Z,13.4
2022-11-07T10:15:13.428Z,13.4
2022-11-07T10:17:13.060Z,13.5
2022-11-07T10:21:36.386Z,13.5
2022-11-07T10:23:11.870Z,13.6
2022-11-07T10:25:11.466Z,13.7
2022-11-07T10:27:14.499Z,13.7
2022-11-07T10:29:14.096Z,13.6
2022-11-07T10:31:13.683Z,13.6
2022-11-07T10:33:13.542Z,13.5
2022-11-07T10:35:12.910Z,13.6
2022-11-07T10:37:12.514Z,13.6
2022-11-07T10:39:12.170Z,13.6
2022-11-07T10:41:15.156Z,13.8
2022-11-07T10:43:15.055Z,13.7
2022-11-07T10:45:14.368Z,13.7
2022-11-07T10:47:13.945Z,13.7
2022-11-07T10:49:13.553Z,13.7
2022-11-07T10:51:13.152Z,13.6
2022-11-07T10:53:12.759Z,13.7
2022-11-07T10:55:15.756Z,13.7
2022-11-07T10:57:15.386Z,13.8
2022-11-07T10:59:14.997Z,13.8
2022-11-07T11:00:16.465Z,13.8
2022-11-07T11:02:16.176Z,13.7
2022-11-07T11:04:15.644Z,13.8
2022-11-07T11:06:15.255Z,13.9
2022-11-07T11:08:18.799Z,14
2022-11-07T11:10:17.871Z,14.1
2022-11-07T11:12:17.454Z,14.1
2022-11-07T11:14:17.050Z,14.3
2022-11-07T11:16:16.659Z,14.6
2022-11-07T11:22:18.852Z,14.2
2022-11-07T11:24:18.975Z,14.1
2022-11-07T11:26:18.558Z,14.1
2022-11-07T11:32:17.355Z,14.4
2022-11-07T11:36:19.929Z,14.3
2022-11-07T11:38:19.524Z,14.3
2022-11-07T11:40:19.089Z,14.3
2022-11-07T11:42:18.679Z,14.3
2022-11-07T11:48:17.405Z,14.2
2022-11-07T11:50:20.400Z,14.1
2022-11-07T11:52:19.968Z,14.1
2022-11-07T11:54:19.539Z,14.1
2022-11-07T11:56:34.918Z,14.1
2022-11-07T11:58:34.493Z,14.2
2022-11-07T12:00:34.061Z,14.2
2022-11-07T12:02:37.136Z,14.2
2022-11-07T12:04:36.652Z,14.2
2022-11-07T12:06:36.219Z,14.1
2022-11-07T12:08:35.789Z,14.1
2022-11-07T12:10:35.367Z,14.1
2022-11-07T12:12:34.965Z,14
2022-11-07T12:14:34.543Z,14.1
2022-11-07T12:16:37.523Z,14.1
2022-11-07T12:18:37.105Z,14.1
2022-11-07T12:20:36.663Z,14.2
2022-11-07T12:22:36.250Z,14.1
2022-11-07T12:24:35.813Z,14.2
2022-11-07T12:26:35.381Z,14.2
2022-11-07T12:28:34.993Z,14.2
2022-11-07T12:30:38.001Z,14.2
2022-11-07T12:32:37.555Z,14.2
2022-11-07T12:34:37.160Z,14.2
2022-11-07T12:36:36.737Z,14.2
2022-11-07T12:38:36.308Z,14.2
2022-11-07T12:40:35.897Z,14.2
2022-11-07T12:42:35.491Z,14.3
2022-11-07T12:44:38.431Z,14.2
2022-11-07T12:46:38.027Z,14.2
2022-11-07T12:48:37.615Z,14.2
2022-11-07T12:53:38.220Z,14.2
2022-11-07T13:03:39.556Z,14.1
2022-11-07T13:05:39.137Z,14.1
2022-11-07T13:07:38.718Z,14.1
2022-11-07T13:09:38.295Z,14.1
2022-11-07T13:11:41.265Z,14.1
2022-11-07T13:17:40.004Z,14.2
2022-11-07T13:19:39.580Z,14.2
2022-11-07T13:21:39.158Z,14.3
2022-11-07T13:23:38.746Z,14.2
2022-11-07T13:25:41.782Z,14.2
2022-11-07T13:27:41.286Z,14.3
2022-11-07T13:29:40.867Z,14.3
2022-11-07T13:37:39.199Z,14.4
2022-11-07T13:39:42.180Z,14.5
2022-11-07T13:41:41.729Z,14.5
2022-11-07T13:44:42.873Z,14.6
2022-11-07T13:46:42.551Z,14.6
2022-11-07T13:48:42.041Z,14.6
2022-11-07T13:50:41.575Z,14.6
2022-11-07T13:52:44.553Z,14.6
2022-11-07T13:54:44.136Z,14.6
2022-11-07T13:56:43.723Z,14.6
2022-11-07T13:58:43.292Z,14.7
2022-11-07T14:00:42.949Z,14.7
2022-11-07T14:02:42.535Z,14.7
2022-11-07T14:06:44.994Z,14.6
2022-11-07T14:08:44.580Z,14.6
2022-11-07T14:10:44.153Z,14.5
2022-11-07T14:12:43.738Z,14.5
2022-11-07T14:14:43.328Z,14.5
2022-11-07T14:16:42.843Z,14.5
2022-11-07T14:18:42.453Z,14.4
2022-11-07T14:20:45.414Z,14.4
2022-11-07T14:22:44.982Z,14.4
2022-11-07T14:24:44.555Z,14.4
2022-11-07T14:26:44.118Z,14.4
2022-11-07T14:28:43.689Z,14.4
2022-11-07T14:32:42.826Z,14.4
2022-11-07T14:34:45.808Z,14.4
2022-11-07T14:36:45.376Z,14.4
2022-11-07T14:38:44.942Z,14.4
2022-11-07T14:39:46.470Z,14.5
2022-11-07T14:41:45.995Z,14.4
2022-11-07T14:43:45.573Z,14.4
2022-11-07T14:46:11.235Z,14.4
2022-11-07T14:47:49.622Z,14.5
2022-11-07T14:49:49.208Z,14.4
2022-11-07T14:51:48.782Z,14.5
2022-11-07T14:53:48.362Z,14.5
2022-11-07T14:55:47.918Z,14.5
2022-11-07T14:57:47.484Z,14.4
2022-11-07T14:59:47.037Z,14.5
2022-11-07T15:03:49.643Z,14.5
2022-11-07T15:05:49.185Z,14.5
2022-11-07T15:11:47.903Z,14.4
2022-11-07T15:13:47.472Z,14.4
2022-11-07T15:15:50.450Z,14.3
2022-11-07T15:17:50.059Z,14.3
2022-11-07T15:19:49.615Z,14.4
2022-11-07T15:21:49.200Z,14.3
2022-11-07T15:23:48.732Z,14.3
2022-11-07T15:25:48.336Z,14.3
2022-11-07T15:27:47.886Z,14.2
2022-11-07T15:29:50.893Z,14.2
2022-11-07T15:31:50.446Z,14.2
2022-11-07T15:33:50.037Z,14.2
2022-11-07T15:36:05.477Z,14.2
2022-11-07T15:38:05.028Z,14.1
2022-11-07T15:40:04.610Z,14.1
2022-11-07T15:42:07.599Z,14
2022-11-07T15:44:07.146Z,14
2022-11-07T15:46:06.773Z,14
2022-11-07T15:48:06.395Z,14
2022-11-07T15:50:05.926Z,14
2022-11-07T15:52:05.495Z,14
2022-11-07T15:54:05.091Z,14
2022-11-07T15:56:08.085Z,13.9
2022-11-07T15:58:07.672Z,13.9
2022-11-07T16:00:07.247Z,13.8
2022-11-07T16:02:07.080Z,13.8
2022-11-07T16:04:06.403Z,13.8
2022-11-07T16:06:06.029Z,13.7
2022-11-07T16:08:05.605Z,13.7
2022-11-07T16:10:08.604Z,13.6
2022-11-07T16:12:08.240Z,13.6
2022-11-07T16:14:41.731Z,13.6
2022-11-07T16:16:07.375Z,13.5
2022-11-07T16:18:06.987Z,13.5
2022-11-07T16:20:06.592Z,13.5
2022-11-07T16:22:06.166Z,13.6
2022-11-07T16:24:09.183Z,13.5
2022-11-07T16:26:08.770Z,13.4
2022-11-07T16:28:08.341Z,13.5
2022-11-07T16:31:09.423Z,13.5
2022-11-07T16:33:09.007Z,13.5
2022-11-07T16:35:08.613Z,13.5
2022-11-07T16:39:11.156Z,13.5
2022-11-07T16:41:10.744Z,13.6
2022-11-07T16:43:10.336Z,13.5
2022-11-07T16:45:09.934Z,13.5
2022-11-07T16:47:09.493Z,13.5
2022-11-07T16:49:09.078Z,13.4
2022-11-07T16:51:12.070Z,13.4
2022-11-07T16:53:11.638Z,13.4
2022-11-07T16:55:11.214Z,13.4
2022-11-07T16:57:10.805Z,13.4
2022-11-07T16:59:10.392Z,13.4
2022-11-07T17:01:10.014Z,13.4
2022-11-07T17:03:09.617Z,13.4
2022-11-07T17:05:12.493Z,13.3
2022-11-07T17:07:12.161Z,13.4
2022-11-07T17:09:13.636Z,13.3
2022-11-07T17:11:11.264Z,13.4
2022-11-07T17:13:10.844Z,13.3
2022-11-07T17:15:10.443Z,13.3
2022-11-07T17:17:10.033Z,13.4
2022-11-07T17:19:13.017Z,13.4
2022-11-07T17:23:12.223Z,13.4
2022-11-07T17:24:13.694Z,13.4
2022-11-07T17:26:13.292Z,13.3
2022-11-07T17:28:13.007Z,13.3
2022-11-07T17:30:12.448Z,13.3
2022-11-07T17:36:14.593Z,13.2
2022-11-07T17:40:13.796Z,13.2
2022-11-07T17:44:13.001Z,13.2
2022-11-07T17:48:15.850Z,13.2
2022-11-07T17:50:15.191Z,13.1
2022-11-07T17:52:14.791Z,13.1
2022-11-07T17:54:14.362Z,13.2
2022-11-07T17:56:13.987Z,13.1
2022-11-07T17:58:13.704Z,13.2
2022-11-07T18:00:16.595Z,13.2
2022-11-07T18:02:16.313Z,13.3
2022-11-07T18:04:15.813Z,13.3
2022-11-07T18:06:15.437Z,13.2
2022-11-07T18:08:25.247Z,13.2
2022-11-07T18:10:14.663Z,13.2
2022-11-07T18:12:14.282Z,13.2
2022-11-07T18:14:17.303Z,13.3
2022-11-07T18:18:16.761Z,13.3
2022-11-07T18:19:18.021Z,13.4
2022-11-07T18:21:17.625Z,13.4
2022-11-07T18:29:19.486Z,13.5
2022-11-07T18:31:19.073Z,13.5
2022-11-07T18:33:18.672Z,13.6
2022-11-07T18:35:18.299Z,13.6
2022-11-07T18:37:17.895Z,13.7
2022-11-07T18:39:17.504Z,13.7
2022-11-07T18:41:20.535Z,13.8
2022-11-07T18:43:20.124Z,13.8
2022-11-07T18:45:19.706Z,13.8
2022-11-07T18:47:19.329Z,13.8
2022-11-07T18:49:18.916Z,13.8
2022-11-07T18:51:18.514Z,13.9
2022-11-07T18:53:18.127Z,13.9
2022-11-07T18:55:26.425Z,13.9
2022-11-07T18:57:20.752Z,14
2022-11-07T19:03:19.602Z,14
2022-11-07T19:05:19.104Z,14
2022-11-07T19:09:21.665Z,13.9
2022-11-07T19:11:21.275Z,13.9
2022-11-07T19:13:20.849Z,13.8
2022-11-07T19:15:36.299Z,13.8
2022-11-07T19:17:35.887Z,13.8
2022-11-07T19:19:35.468Z,13.9
2022-11-07T19:21:41.460Z,13.7
2022-11-07T19:23:38.033Z,13.7
2022-11-07T19:25:37.630Z,13.7
2022-11-07T19:27:37.193Z,13.7
2022-11-07T19:29:36.792Z,13.8
2022-11-07T19:31:36.360Z,13.7
2022-11-07T19:37:38.514Z,13.6
2022-11-07T19:39:38.084Z,13.6
2022-11-07T19:41:37.669Z,13.6
2022-11-07T19:43:37.223Z,13.5
2022-11-07T19:47:36.446Z,13.6
2022-11-07T19:51:39.032Z,13.5
2022-11-07T19:53:38.608Z,13.5
2022-11-07T19:55:38.186Z,13.4
2022-11-07T19:57:37.826Z,13.6
2022-11-07T19:59:37.396Z,13.6
2022-11-07T20:01:37.037Z,13.5
2022-11-07T20:03:40.009Z,13.6
2022-11-07T20:05:39.607Z,13.5
2022-11-07T20:10:40.287Z,13.4
2022-11-07T20:12:39.885Z,13.4
2022-11-07T20:14:39.479Z,13.5
2022-11-07T20:16:42.479Z,13.5
2022-11-07T20:18:42.085Z,13.5
2022-11-07T20:20:41.697Z,13.6
2022-11-07T20:22:46.026Z,13.5
2022-11-07T20:24:40.891Z,13.5
2022-11-07T20:26:40.677Z,13.4
2022-11-07T20:28:40.111Z,13.5
2022-11-07T20:30:44.677Z,13.4
2022-11-07T20:32:44.253Z,13.5
2022-11-07T20:34:43.866Z,13.5
2022-11-07T20:36:43.479Z,13.4
2022-11-07T20:38:43.082Z,13.5
2022-11-07T20:40:42.663Z,13.5
2022-11-07T20:42:42.268Z,13.5
2022-11-07T20:44:45.286Z,13.5
2022-11-07T20:46:44.880Z,13.5
2022-11-07T20:48:44.472Z,13.4
2022-11-07T20:50:44.085Z,13.4
2022-11-07T20:52:43.701Z,13.4
2022-11-07T20:54:43.321Z,13.4
2022-11-07T20:56:42.915Z,13.4
2022-11-07T20:58:45.921Z,13.4
2022-11-07T21:00:45.592Z,13.4
2022-11-07T21:02:45.127Z,13.4
2022-11-07T21:03:46.647Z,13.4
2022-11-07T21:05:46.232Z,13.4
2022-11-07T21:07:45.825Z,13.5
2022-11-07T21:09:45.399Z,13.4
2022-11-07T21:11:48.430Z,13.5
2022-11-07T21:13:52.907Z,13.6
2022-11-07T21:15:47.591Z,13.5
2022-11-07T21:17:47.244Z,13.6
2022-11-07T21:19:46.777Z,13.6
2022-11-07T21:21:46.400Z,13.5
2022-11-07T21:25:49.001Z,13.5
2022-11-07T21:29:48.196Z,13.5
2022-11-07T21:33:47.389Z,13.6
2022-11-07T21:37:46.559Z,13.6
2022-11-07T21:39:49.579Z,13.6
2022-11-07T21:41:49.159Z,13.6
2022-11-07T21:43:48.752Z,13.6
2022-11-07T21:45:48.354Z,13.6
2022-11-07T21:47:47.967Z,13.6
2022-11-07T21:49:47.548Z,13.7
2022-11-07T21:51:47.136Z,13.7
2022-11-07T21:53:50.122Z,13.7
2022-11-07T21:55:49.694Z,13.6
2022-11-07T21:57:49.294Z,13.6
2022-11-07T21:58:50.784Z,13.6
2022-11-07T22:00:50.412Z,13.6
2022-11-07T22:02:49.970Z,13.6
2022-11-07T22:04:49.581Z,13.7
2022-11-07T22:08:52.150Z,13.7
2022-11-07T22:10:51.732Z,13.7
2022-11-07T22:12:51.365Z,13.7
2022-11-07T22:14:50.961Z,13.7
2022-11-07T22:16:50.550Z,13.8
2022-11-07T22:18:50.127Z,13.8
2022-11-07T22:20:53.138Z,13.8
2022-11-07T22:22:52.724Z,13.8
2022-11-07T22:24:52.319Z,13.8
2022-11-07T22:26:51.923Z,13.8
2022-11-07T22:28:51.513Z,13.8
2022-11-07T22:30:51.109Z,13.7
2022-11-07T22:32:50.703Z,13.8
2022-11-07T22:34:53.769Z,13.8
2022-11-07T22:36:53.280Z,13.7
2022-11-07T22:38:52.861Z,13.7
2022-11-07T22:40:52.466Z,13.8
2022-11-07T22:42:52.071Z,13.8
2022-11-07T22:44:51.702Z,13.7
2022-11-07T22:46:51.227Z,13.7
2022-11-07T22:48:54.241Z,13.8
2022-11-07T22:55:15.039Z,13.7
2022-11-07T22:57:17.834Z,13.7
2022-11-07T22:59:14.193Z,13.7
2022-11-07T23:01:17.201Z,13.6
2022-11-07T23:05:16.344Z,13.5
2022-11-07T23:09:15.508Z,13.5
2022-11-07T23:11:46.366Z,13.4
2022-11-07T23:13:14.681Z,13.4
2022-11-07T23:15:17.639Z,13.4
2022-11-07T23:17:17.220Z,13.5
2022-11-07T23:19:16.844Z,13.4
2022-11-07T23:21:16.453Z,13.4
2022-11-07T23:23:16.005Z,13.2
2022-11-07T23:25:15.601Z,13.3
2022-11-07T23:27:15.195Z,13.3
2022-11-07T23:29:18.215Z,13.2
2022-11-07T23:35:17.046Z,13.1
2022-11-07T23:37:16.653Z,13.1
2022-11-07T23:39:16.244Z,13
2022-11-07T23:41:15.845Z,13
2022-11-07T23:43:18.853Z,13
2022-11-07T23:45:18.469Z,13
2022-11-07T23:47:18.042Z,12.9
2022-11-07T23:48:19.922Z,12.9
2022-11-07T23:50:19.158Z,12.9
2022-11-07T23:52:18.781Z,12.9
2022-11-07T23:54:18.388Z,12.9
2022-11-07T23:56:21.389Z,12.8
